MDT,Max TemperatureF,Mean TemperatureF,Min TemperatureF,Max Dew PointF,MeanDew PointF,Min DewpointF,Max Humidity, Mean Humidity, Min Humidity, Max Sea Level PressureIn, Mean Sea Level PressureIn, Min Sea Level PressureIn, Max VisibilityMiles, Mean VisibilityMiles, Min VisibilityMiles, Max Wind SpeedMPH, Mean Wind SpeedMPH, Max Gust SpeedMPH,PrecipitationIn, CloudCover, Events, WindDirDegrees
2013-6-1,60,50,41,41,37,36,93,64,39,30.20,30.15,30.00,10,10,10,24,18,34,0.00,3,,326
2013-6-2,73,57,41,45,40,36,87,53,33,30.19,29.98,29.73,10,10,10,25,10,33,0.00,0,,111
2013-6-3,69,60,48,48,40,32,72,49,25,30.03,29.78,29.62,10,10,10,26,17,36,0.00,0,,330
2013-6-4,55,48,41,36,35,34,76,61,44,30.25,30.12,30.02,10,10,10,29,15,34,0.00,2,,321
2013-6-5,60,48,37,37,35,34,93,62,36,30.24,30.19,30.12,10,10,10,13,8,20,0.00,3,,324
2013-6-6,71,54,37,45,38,34,93,57,27,30.15,30.10,30.06,10,10,10,17,4,25,0.00,0,,328
2013-6-7,78,62,46,52,43,37,88,52,24,30.13,29.94,29.75,10,10,3,23,4,43,0.03,0,Rain-Thunderstorm,115
2013-6-8,69,60,51,52,44,36,94,61,30,30.01,29.89,29.73,10,10,3,31,11,39,0.10,1,Rain-Thunderstorm,325
2013-6-9,77,60,44,45,42,37,93,51,25,30.03,29.96,29.83,10,10,10,20,5,29,0.00,0,,113
2013-6-10,82,68,53,59,49,43,77,46,26,29.89,29.83,29.78,10,10,10,17,10,20,0.00,0,,269
2013-6-11,82,68,55,55,53,46,94,62,37,29.98,29.87,29.77,10,10,4,24,6,54,0.13,0,Rain-Thunderstorm,128
2013-6-12,75,63,51,54,51,48,94,70,44,30.16,30.09,30.00,10,10,10,23,10,30,0.00,0,,289
2013-6-13,73,62,50,54,48,43,88,60,43,30.17,30.03,29.86,10,10,7,29,15,34,0.01,0,Rain-Thunderstorm,125
2013-6-14,78,66,53,54,45,34,82,48,20,30.06,29.94,29.80,10,10,10,22,14,33,0.00,0,Thunderstorm,335
2013-6-15,75,63,51,43,37,32,67,38,21,30.12,30.08,30.02,10,10,10,15,7,22,0.00,3,,312
2013-6-16,80,70,60,55,45,30,72,46,16,30.16,30.06,30.04,10,10,10,16,9,23,0.00,1,,28
2013-6-17,77,65,53,52,48,45,82,58,32,30.19,30.15,30.09,10,9,3,17,6,23,0.02,1,Rain-Thunderstorm,134
2013-6-18,80,65,50,50,47,41,87,52,28,30.15,30.05,29.93,10,10,7,20,7,29,0.00,0,Thunderstorm,104
2013-6-19,82,70,59,59,51,43,61,47,34,29.94,29.79,29.67,10,10,5,29,17,41,0.00,0,,118
2013-6-20,82,68,55,55,38,25,77,34,12,29.95,29.86,29.72,10,10,10,22,9,30,0.00,0,,295
2013-6-21,80,68,55,55,52,43,88,64,39,30.04,29.92,29.86,10,10,4,31,7,38,0.08,1,Rain-Thunderstorm,34
2013-6-22,77,64,50,54,50,45,100,74,41,30.02,29.95,29.85,10,10,2,29,9,38,0.08,1,Rain-Thunderstorm,346
2013-6-23,73,58,44,48,43,37,93,56,29,30.00,29.94,29.84,10,10,10,20,9,30,0.00,1,,309
2013-6-24,89,76,64,52,42,32,59,35,13,29.83,29.76,29.69,10,10,10,21,13,30,0.00,0,,121
2013-6-25,78,70,62,50,45,36,59,39,28,29.95,29.85,29.75,10,10,10,22,12,32,0.00,0,,342
2013-6-26,87,71,55,52,47,43,82,44,21,30.08,30.00,29.95,10,10,5,10,4,20,0.00,0,,293
2013-6-27,87,71,55,54,49,41,82,46,19,30.27,30.19,30.09,10,10,7,16,5,23,0.00,0,,329
2013-6-28,86,70,55,50,46,43,72,42,22,30.32,30.27,30.21,10,10,10,20,7,26,0.00,0,,338
2013-6-29,82,70,57,52,46,43,77,45,26,30.27,30.21,30.15,10,10,10,18,7,24,0.00,0,,336
2013-6-30,84,70,55,50,44,39,72,44,21,30.25,30.21,30.17,10,10,10,14,4,21,0.00,0,,95